This is the latest recevied weather packets stored in our database for station/object F4DYW-13. If no packets are shown the sender has not sent any weather packets the latest 10 day(s).
| Time | Temp. | Humidity | Pressure | Rain* | Wind** | Luminosity | Snow |
|---|---|---|---|---|---|---|---|
| 1778167048 | 19.44° C | 56% | 1013.9 hPa | 0 mm | - | - | - |
| 1778166013 | 21.67° C | 50% | 1014 hPa | 0 mm | - | - | - |
| 1778164977 | 20° C | 55% | 1014.2 hPa | 0 mm | - | - | - |
| 1778163942 | 20.56° C | 54% | 1014.4 hPa | 0 mm | - | - | - |
| 1778162906 | 18.33° C | 62% | 1014.6 hPa | 0 mm | - | - | - |
| 1778161869 | 18.33° C | 62% | 1014.8 hPa | 0 mm | - | - | - |
| 1778159803 | 18.33° C | 62% | 1015 hPa | 0 mm | - | - | - |
| 1778157731 | 18.33° C | 61% | 1015 hPa | 0 mm | - | - | - |
| 1778156696 | 18.33° C | 62% | 1015.1 hPa | 0 mm | - | - | - |
| 1778153586 | 18.33° C | 62% | 1015.5 hPa | 0 mm | - | - | - |
| 1778152549 | 18.33° C | 62% | 1015.7 hPa | 0 mm | - | - | - |
| 1778150478 | 18.33° C | 63% | 1015.9 hPa | 0 mm | - | - | - |
| 1778148406 | 17.78° C | 64% | 1016.1 hPa | 0 mm | - | - | - |
| 1778147371 | 17.78° C | 64% | 1016.3 hPa | 0 mm | - | - | - |
| 1778144266 | 17.22° C | 65% | 1016.3 hPa | 0 mm | - | - | - |
| 1778141156 | 17.22° C | 65% | 1016.4 hPa | 0 mm | - | - | - |
| 1778140123 | 17.22° C | 65% | 1016.4 hPa | 0 mm | - | - | - |
| 1778139085 | 17.22° C | 66% | 1016.5 hPa | 0 mm | - | - | - |
| 1778138049 | 17.22° C | 66% | 1016.4 hPa | 0 mm | - | - | - |
| 1778137014 | 17.22° C | 66% | 1016.4 hPa | 0 mm | - | - | - |
| 1778135977 | 17.22° C | 65% | 1016.4 hPa | 0 mm | - | - | - |
| 1778134942 | 17.22° C | 65% | 1016.3 hPa | 0 mm | - | - | - |
| 1778132870 | 17.22° C | 65% | 1016.2 hPa | 0 mm | - | - | - |
| 1778126662 | 17.22° C | 66% | 1015.6 hPa | 0 mm | - | - | - |
| 1778125621 | 17.22° C | 66% | 1015.5 hPa | 0 mm | - | - | - |
* Rain latest hour (hover to see other rain measurements)
** Current wind speed in m/s (hover to see current wind gust speed)